sensor_id;sensor_type;location;lat;lon;timestamp;P1;durP1;ratioP1;P2;durP2;ratioP2
63975;SDS011;50167;47.958;21.780;2024-02-23T00:01:32;9.87;;;6.30;;
63975;SDS011;50167;47.958;21.780;2024-02-23T00:03:59;9.07;;;5.67;;
63975;SDS011;50167;47.958;21.780;2024-02-23T00:06:28;11.40;;;6.30;;
63975;SDS011;50167;47.958;21.780;2024-02-23T00:08:55;10.60;;;7.33;;
63975;SDS011;50167;47.958;21.780;2024-02-23T00:11:23;11.67;;;6.77;;
63975;SDS011;50167;47.958;21.780;2024-02-23T00:13:50;8.50;;;5.97;;
63975;SDS011;50167;47.958;21.780;2024-02-23T00:16:17;9.60;;;5.93;;
63975;SDS011;50167;47.958;21.780;2024-02-23T00:18:44;8.33;;;5.33;;
63975;SDS011;50167;47.958;21.780;2024-02-23T00:21:11;8.07;;;5.27;;
63975;SDS011;50167;47.958;21.780;2024-02-23T00:23:38;10.77;;;7.20;;
63975;SDS011;50167;47.958;21.780;2024-02-23T00:26:05;9.70;;;6.33;;
63975;SDS011;50167;47.958;21.780;2024-02-23T00:28:32;11.20;;;6.43;;
63975;SDS011;50167;47.958;21.780;2024-02-23T00:30:59;9.00;;;5.93;;
63975;SDS011;50167;47.958;21.780;2024-02-23T00:33:27;10.00;;;6.37;;
63975;SDS011;50167;47.958;21.780;2024-02-23T00:35:54;9.87;;;6.40;;
63975;SDS011;50167;47.958;21.780;2024-02-23T00:38:21;8.40;;;6.07;;
63975;SDS011;50167;47.958;21.780;2024-02-23T00:40:48;9.63;;;5.93;;
63975;SDS011;50167;47.958;21.780;2024-02-23T00:43:15;8.87;;;5.80;;
63975;SDS011;50167;47.958;21.780;2024-02-23T00:45:45;9.38;;;6.22;;
63975;SDS011;50167;47.958;21.780;2024-02-23T00:48:12;13.07;;;6.73;;
63975;SDS011;50167;47.958;21.780;2024-02-23T00:50:40;11.53;;;6.40;;
63975;SDS011;50167;47.958;21.780;2024-02-23T00:53:07;15.83;;;8.17;;
63975;SDS011;50167;47.958;21.780;2024-02-23T00:55:34;11.17;;;6.40;;
63975;SDS011;50167;47.958;21.780;2024-02-23T00:58:01;14.33;;;6.70;;
63975;SDS011;50167;47.958;21.780;2024-02-23T01:00:29;11.40;;;6.77;;
63975;SDS011;50167;47.958;21.780;2024-02-23T01:02:57;12.97;;;7.23;;
63975;SDS011;50167;47.958;21.780;2024-02-23T01:05:26;9.17;;;5.73;;
63975;SDS011;50167;47.958;21.780;2024-02-23T01:07:53;14.20;;;7.47;;
63975;SDS011;50167;47.958;21.780;2024-02-23T01:10:20;9.67;;;6.40;;
63975;SDS011;50167;47.958;21.780;2024-02-23T01:12:47;11.23;;;7.37;;
63975;SDS011;50167;47.958;21.780;2024-02-23T01:15:14;13.37;;;6.87;;
63975;SDS011;50167;47.958;21.780;2024-02-23T01:17:41;12.53;;;7.40;;
63975;SDS011;50167;47.958;21.780;2024-02-23T01:20:10;15.73;;;8.03;;
63975;SDS011;50167;47.958;21.780;2024-02-23T01:22:38;10.00;;;6.93;;
63975;SDS011;50167;47.958;21.780;2024-02-23T01:25:05;12.90;;;7.07;;
63975;SDS011;50167;47.958;21.780;2024-02-23T01:27:33;13.17;;;6.53;;
63975;SDS011;50167;47.958;21.780;2024-02-23T01:30:00;14.17;;;7.70;;
63975;SDS011;50167;47.958;21.780;2024-02-23T01:32:27;12.43;;;6.57;;
63975;SDS011;50167;47.958;21.780;2024-02-23T01:34:54;14.67;;;8.33;;
63975;SDS011;50167;47.958;21.780;2024-02-23T01:37:22;9.63;;;6.17;;
63975;SDS011;50167;47.958;21.780;2024-02-23T01:39:49;10.23;;;7.30;;
63975;SDS011;50167;47.958;21.780;2024-02-23T01:42:16;12.17;;;6.70;;
63975;SDS011;50167;47.958;21.780;2024-02-23T01:44:43;11.03;;;6.87;;
63975;SDS011;50167;47.958;21.780;2024-02-23T01:47:10;10.37;;;7.30;;
63975;SDS011;50167;47.958;21.780;2024-02-23T01:49:38;13.03;;;7.13;;
63975;SDS011;50167;47.958;21.780;2024-02-23T01:52:05;14.80;;;6.80;;
63975;SDS011;50167;47.958;21.780;2024-02-23T01:54:33;20.17;;;7.90;;
63975;SDS011;50167;47.958;21.780;2024-02-23T01:57:00;12.80;;;6.57;;
63975;SDS011;50167;47.958;21.780;2024-02-23T01:59:28;9.53;;;6.30;;
63975;SDS011;50167;47.958;21.780;2024-02-23T02:01:56;12.10;;;7.13;;
63975;SDS011;50167;47.958;21.780;2024-02-23T02:04:23;11.13;;;7.33;;
63975;SDS011;50167;47.958;21.780;2024-02-23T02:06:50;9.10;;;6.30;;
63975;SDS011;50167;47.958;21.780;2024-02-23T02:09:17;9.37;;;5.80;;
63975;SDS011;50167;47.958;21.780;2024-02-23T02:11:49;14.83;;;6.87;;
63975;SDS011;50167;47.958;21.780;2024-02-23T02:14:15;13.78;;;6.08;;
63975;SDS011;50167;47.958;21.780;2024-02-23T02:16:43;13.07;;;7.13;;
63975;SDS011;50167;47.958;21.780;2024-02-23T02:19:11;10.60;;;6.37;;
63975;SDS011;50167;47.958;21.780;2024-02-23T02:21:39;9.40;;;5.33;;
63975;SDS011;50167;47.958;21.780;2024-02-23T02:24:08;11.93;;;6.57;;
63975;SDS011;50167;47.958;21.780;2024-02-23T02:26:35;8.87;;;6.07;;
63975;SDS011;50167;47.958;21.780;2024-02-23T02:29:04;9.80;;;6.37;;
63975;SDS011;50167;47.958;21.780;2024-02-23T02:31:31;11.13;;;5.73;;
63975;SDS011;50167;47.958;21.780;2024-02-23T02:33:59;9.90;;;5.77;;
63975;SDS011;50167;47.958;21.780;2024-02-23T02:36:27;11.37;;;5.37;;
63975;SDS011;50167;47.958;21.780;2024-02-23T02:38:54;8.80;;;4.73;;
63975;SDS011;50167;47.958;21.780;2024-02-23T02:41:23;7.97;;;5.43;;
63975;SDS011;50167;47.958;21.780;2024-02-23T02:43:53;8.58;;;5.58;;
63975;SDS011;50167;47.958;21.780;2024-02-23T02:46:20;10.70;;;6.23;;
63975;SDS011;50167;47.958;21.780;2024-02-23T02:48:47;9.30;;;5.63;;
63975;SDS011;50167;47.958;21.780;2024-02-23T02:51:14;9.93;;;5.03;;
63975;SDS011;50167;47.958;21.780;2024-02-23T02:53:41;9.83;;;5.67;;
63975;SDS011;50167;47.958;21.780;2024-02-23T02:56:08;11.67;;;5.53;;
63975;SDS011;50167;47.958;21.780;2024-02-23T02:58:35;9.80;;;5.23;;
63975;SDS011;50167;47.958;21.780;2024-02-23T03:01:02;10.63;;;5.13;;
63975;SDS011;50167;47.958;21.780;2024-02-23T03:03:29;8.17;;;5.03;;
63975;SDS011;50167;47.958;21.780;2024-02-23T03:05:57;9.47;;;5.43;;
63975;SDS011;50167;47.958;21.780;2024-02-23T03:08:24;10.73;;;5.23;;
63975;SDS011;50167;47.958;21.780;2024-02-23T03:10:51;9.77;;;5.63;;
63975;SDS011;50167;47.958;21.780;2024-02-23T03:13:18;9.47;;;5.73;;
63975;SDS011;50167;47.958;21.780;2024-02-23T03:15:45;10.57;;;5.73;;
63975;SDS011;50167;47.958;21.780;2024-02-23T03:18:12;8.70;;;5.60;;
63975;SDS011;50167;47.958;21.780;2024-02-23T03:20:41;7.50;;;5.67;;
63975;SDS011;50167;47.958;21.780;2024-02-23T03:23:09;7.47;;;5.27;;
63975;SDS011;50167;47.958;21.780;2024-02-23T03:25:38;10.33;;;6.17;;
63975;SDS011;50167;47.958;21.780;2024-02-23T03:28:05;8.30;;;5.97;;
63975;SDS011;50167;47.958;21.780;2024-02-23T03:30:32;7.97;;;5.27;;
63975;SDS011;50167;47.958;21.780;2024-02-23T03:32:59;9.10;;;5.77;;
63975;SDS011;50167;47.958;21.780;2024-02-23T03:35:26;8.80;;;5.60;;
63975;SDS011;50167;47.958;21.780;2024-02-23T03:37:53;11.90;;;6.63;;
63975;SDS011;50167;47.958;21.780;2024-02-23T03:40:21;8.37;;;5.33;;
63975;SDS011;50167;47.958;21.780;2024-02-23T03:42:48;9.17;;;6.53;;
63975;SDS011;50167;47.958;21.780;2024-02-23T03:45:15;19.37;;;5.27;;
63975;SDS011;50167;47.958;21.780;2024-02-23T03:47:42;7.50;;;4.93;;
63975;SDS011;50167;47.958;21.780;2024-02-23T03:50:09;7.43;;;4.97;;
63975;SDS011;50167;47.958;21.780;2024-02-23T03:52:37;8.67;;;5.87;;
63975;SDS011;50167;47.958;21.780;2024-02-23T03:55:04;8.17;;;5.07;;
63975;SDS011;50167;47.958;21.780;2024-02-23T03:57:32;10.20;;;5.47;;
63975;SDS011;50167;47.958;21.780;2024-02-23T03:59:59;14.43;;;5.57;;
63975;SDS011;50167;47.958;21.780;2024-02-23T04:02:26;8.50;;;5.40;;
63975;SDS011;50167;47.958;21.780;2024-02-23T04:04:53;9.40;;;5.73;;
63975;SDS011;50167;47.958;21.780;2024-02-23T04:07:20;6.10;;;4.60;;
63975;SDS011;50167;47.958;21.780;2024-02-23T04:09:48;9.23;;;5.50;;
63975;SDS011;50167;47.958;21.780;2024-02-23T04:12:17;8.43;;;5.60;;
63975;SDS011;50167;47.958;21.780;2024-02-23T04:14:46;6.10;;;4.30;;
63975;SDS011;50167;47.958;21.780;2024-02-23T04:17:13;7.57;;;4.53;;
63975;SDS011;50167;47.958;21.780;2024-02-23T04:19:41;8.23;;;5.17;;
63975;SDS011;50167;47.958;21.780;2024-02-23T04:22:09;9.67;;;6.07;;
63975;SDS011;50167;47.958;21.780;2024-02-23T04:24:40;7.23;;;4.53;;
63975;SDS011;50167;47.958;21.780;2024-02-23T04:27:08;8.80;;;5.27;;
63975;SDS011;50167;47.958;21.780;2024-02-23T04:29:35;7.17;;;5.03;;
63975;SDS011;50167;47.958;21.780;2024-02-23T04:32:02;10.40;;;5.70;;
63975;SDS011;50167;47.958;21.780;2024-02-23T04:34:31;6.57;;;4.77;;
63975;SDS011;50167;47.958;21.780;2024-02-23T04:36:58;9.40;;;5.97;;
63975;SDS011;50167;47.958;21.780;2024-02-23T04:39:25;7.07;;;5.10;;
63975;SDS011;50167;47.958;21.780;2024-02-23T04:41:52;10.10;;;5.77;;
63975;SDS011;50167;47.958;21.780;2024-02-23T04:44:20;8.33;;;5.57;;
63975;SDS011;50167;47.958;21.780;2024-02-23T04:46:47;8.93;;;5.77;;
63975;SDS011;50167;47.958;21.780;2024-02-23T04:49:14;7.13;;;4.47;;
63975;SDS011;50167;47.958;21.780;2024-02-23T04:51:42;9.17;;;5.47;;
63975;SDS011;50167;47.958;21.780;2024-02-23T04:54:09;8.13;;;4.27;;
63975;SDS011;50167;47.958;21.780;2024-02-23T04:56:36;5.80;;;4.10;;
63975;SDS011;50167;47.958;21.780;2024-02-23T04:59:03;8.53;;;5.23;;
63975;SDS011;50167;47.958;21.780;2024-02-23T05:01:34;7.47;;;4.47;;
63975;SDS011;50167;47.958;21.780;2024-02-23T05:04:04;8.60;;;4.97;;
63975;SDS011;50167;47.958;21.780;2024-02-23T05:06:31;6.50;;;4.63;;
63975;SDS011;50167;47.958;21.780;2024-02-23T05:08:58;10.23;;;5.83;;
63975;SDS011;50167;47.958;21.780;2024-02-23T05:11:25;8.57;;;4.77;;
63975;SDS011;50167;47.958;21.780;2024-02-23T05:13:52;5.97;;;5.03;;
63975;SDS011;50167;47.958;21.780;2024-02-23T05:16:20;7.53;;;5.40;;
63975;SDS011;50167;47.958;21.780;2024-02-23T05:18:47;7.47;;;4.30;;
63975;SDS011;50167;47.958;21.780;2024-02-23T05:21:14;8.27;;;6.07;;
63975;SDS011;50167;47.958;21.780;2024-02-23T05:23:42;10.43;;;5.27;;
63975;SDS011;50167;47.958;21.780;2024-02-23T05:26:09;9.67;;;5.50;;
63975;SDS011;50167;47.958;21.780;2024-02-23T05:28:37;10.27;;;5.70;;
63975;SDS011;50167;47.958;21.780;2024-02-23T05:31:04;15.33;;;6.03;;
63975;SDS011;50167;47.958;21.780;2024-02-23T05:33:31;9.20;;;5.57;;
63975;SDS011;50167;47.958;21.780;2024-02-23T05:35:58;8.53;;;5.70;;
63975;SDS011;50167;47.958;21.780;2024-02-23T05:38:25;10.37;;;6.67;;
63975;SDS011;50167;47.958;21.780;2024-02-23T05:40:52;10.50;;;6.53;;
63975;SDS011;50167;47.958;21.780;2024-02-23T05:43:19;8.60;;;5.80;;
63975;SDS011;50167;47.958;21.780;2024-02-23T05:45:46;7.30;;;5.87;;
63975;SDS011;50167;47.958;21.780;2024-02-23T05:48:14;9.60;;;6.20;;
63975;SDS011;50167;47.958;21.780;2024-02-23T05:50:41;13.00;;;7.03;;
63975;SDS011;50167;47.958;21.780;2024-02-23T05:53:08;11.80;;;7.20;;
63975;SDS011;50167;47.958;21.780;2024-02-23T05:55:36;11.87;;;5.77;;
63975;SDS011;50167;47.958;21.780;2024-02-23T05:58:03;11.53;;;6.17;;
63975;SDS011;50167;47.958;21.780;2024-02-23T06:00:31;11.07;;;6.63;;
63975;SDS011;50167;47.958;21.780;2024-02-23T06:02:58;10.17;;;6.87;;
63975;SDS011;50167;47.958;21.780;2024-02-23T06:05:26;11.60;;;7.53;;
63975;SDS011;50167;47.958;21.780;2024-02-23T06:07:53;10.13;;;6.73;;
63975;SDS011;50167;47.958;21.780;2024-02-23T06:10:20;7.83;;;5.73;;
63975;SDS011;50167;47.958;21.780;2024-02-23T06:12:47;8.83;;;6.57;;
63975;SDS011;50167;47.958;21.780;2024-02-23T06:15:14;12.93;;;6.90;;
63975;SDS011;50167;47.958;21.780;2024-02-23T06:17:41;9.50;;;6.47;;
63975;SDS011;50167;47.958;21.780;2024-02-23T06:20:09;10.60;;;7.10;;
63975;SDS011;50167;47.958;21.780;2024-02-23T06:22:37;11.70;;;6.30;;
63975;SDS011;50167;47.958;21.780;2024-02-23T06:25:04;9.40;;;6.90;;
63975;SDS011;50167;47.958;21.780;2024-02-23T06:27:33;13.80;;;7.33;;
63975;SDS011;50167;47.958;21.780;2024-02-23T06:30:00;10.73;;;6.50;;
63975;SDS011;50167;47.958;21.780;2024-02-23T06:32:27;12.03;;;7.80;;
63975;SDS011;50167;47.958;21.780;2024-02-23T06:34:54;10.70;;;7.60;;
63975;SDS011;50167;47.958;21.780;2024-02-23T06:37:21;11.57;;;8.10;;
63975;SDS011;50167;47.958;21.780;2024-02-23T06:39:48;10.73;;;7.23;;
63975;SDS011;50167;47.958;21.780;2024-02-23T06:42:17;12.40;;;7.80;;
63975;SDS011;50167;47.958;21.780;2024-02-23T06:44:44;13.07;;;8.60;;
63975;SDS011;50167;47.958;21.780;2024-02-23T06:47:11;11.53;;;8.23;;
63975;SDS011;50167;47.958;21.780;2024-02-23T06:49:42;13.47;;;7.87;;
63975;SDS011;50167;47.958;21.780;2024-02-23T06:52:10;14.97;;;9.17;;
63975;SDS011;50167;47.958;21.780;2024-02-23T06:54:37;10.47;;;7.50;;
63975;SDS011;50167;47.958;21.780;2024-02-23T06:57:04;12.87;;;7.93;;
63975;SDS011;50167;47.958;21.780;2024-02-23T06:59:31;11.77;;;8.10;;
63975;SDS011;50167;47.958;21.780;2024-02-23T07:01:58;13.77;;;8.50;;
63975;SDS011;50167;47.958;21.780;2024-02-23T07:04:25;14.87;;;8.50;;
63975;SDS011;50167;47.958;21.780;2024-02-23T07:06:55;15.10;;;7.63;;
63975;SDS011;50167;47.958;21.780;2024-02-23T07:09:22;13.00;;;8.03;;
63975;SDS011;50167;47.958;21.780;2024-02-23T07:11:49;14.30;;;7.83;;
63975;SDS011;50167;47.958;21.780;2024-02-23T07:14:16;16.63;;;10.83;;
63975;SDS011;50167;47.958;21.780;2024-02-23T07:16:44;14.37;;;9.47;;
63975;SDS011;50167;47.958;21.780;2024-02-23T07:19:11;11.90;;;8.37;;
63975;SDS011;50167;47.958;21.780;2024-02-23T07:21:39;10.93;;;7.70;;
63975;SDS011;50167;47.958;21.780;2024-02-23T07:24:06;11.97;;;7.67;;
63975;SDS011;50167;47.958;21.780;2024-02-23T07:26:34;10.67;;;8.13;;
63975;SDS011;50167;47.958;21.780;2024-02-23T07:29:01;11.83;;;8.07;;
63975;SDS011;50167;47.958;21.780;2024-02-23T07:31:28;12.87;;;8.47;;
63975;SDS011;50167;47.958;21.780;2024-02-23T07:33:55;13.80;;;8.80;;
63975;SDS011;50167;47.958;21.780;2024-02-23T07:36:22;13.67;;;7.93;;
63975;SDS011;50167;47.958;21.780;2024-02-23T07:38:49;20.10;;;9.30;;
63975;SDS011;50167;47.958;21.780;2024-02-23T07:41:17;16.20;;;8.53;;
63975;SDS011;50167;47.958;21.780;2024-02-23T07:43:46;9.57;;;6.80;;
63975;SDS011;50167;47.958;21.780;2024-02-23T07:46:13;12.43;;;8.30;;
63975;SDS011;50167;47.958;21.780;2024-02-23T07:48:41;12.07;;;7.47;;
63975;SDS011;50167;47.958;21.780;2024-02-23T07:51:08;12.03;;;7.87;;
63975;SDS011;50167;47.958;21.780;2024-02-23T07:53:36;20.87;;;9.23;;
63975;SDS011;50167;47.958;21.780;2024-02-23T07:56:03;14.27;;;9.33;;
63975;SDS011;50167;47.958;21.780;2024-02-23T07:58:33;17.10;;;10.43;;
63975;SDS011;50167;47.958;21.780;2024-02-23T08:01:00;17.83;;;10.93;;
63975;SDS011;50167;47.958;21.780;2024-02-23T08:03:27;12.77;;;8.67;;
63975;SDS011;50167;47.958;21.780;2024-02-23T08:05:55;16.40;;;10.53;;
63975;SDS011;50167;47.958;21.780;2024-02-23T08:08:22;10.40;;;7.20;;
63975;SDS011;50167;47.958;21.780;2024-02-23T08:10:50;15.63;;;8.00;;
63975;SDS011;50167;47.958;21.780;2024-02-23T08:13:17;11.30;;;7.07;;
63975;SDS011;50167;47.958;21.780;2024-02-23T08:15:44;13.57;;;8.07;;
63975;SDS011;50167;47.958;21.780;2024-02-23T08:18:11;14.77;;;9.17;;
63975;SDS011;50167;47.958;21.780;2024-02-23T08:20:38;13.57;;;8.27;;
63975;SDS011;50167;47.958;21.780;2024-02-23T08:23:05;13.23;;;9.30;;
63975;SDS011;50167;47.958;21.780;2024-02-23T08:25:33;13.03;;;7.73;;
63975;SDS011;50167;47.958;21.780;2024-02-23T08:28:00;12.10;;;7.87;;
63975;SDS011;50167;47.958;21.780;2024-02-23T08:30:27;18.67;;;10.40;;
63975;SDS011;50167;47.958;21.780;2024-02-23T08:32:54;10.23;;;7.07;;
63975;SDS011;50167;47.958;21.780;2024-02-23T08:35:21;8.97;;;6.30;;
63975;SDS011;50167;47.958;21.780;2024-02-23T08:37:48;14.87;;;7.90;;
63975;SDS011;50167;47.958;21.780;2024-02-23T08:40:15;8.37;;;6.03;;
63975;SDS011;50167;47.958;21.780;2024-02-23T08:42:42;11.33;;;7.30;;
63975;SDS011;50167;47.958;21.780;2024-02-23T08:45:10;9.87;;;6.20;;
63975;SDS011;50167;47.958;21.780;2024-02-23T08:47:41;11.40;;;6.37;;
63975;SDS011;50167;47.958;21.780;2024-02-23T08:50:08;13.70;;;7.53;;
63975;SDS011;50167;47.958;21.780;2024-02-23T08:52:36;11.77;;;7.80;;
63975;SDS011;50167;47.958;21.780;2024-02-23T08:55:03;15.30;;;7.40;;
63975;SDS011;50167;47.958;21.780;2024-02-23T08:57:30;12.43;;;8.57;;
63975;SDS011;50167;47.958;21.780;2024-02-23T08:59:57;10.53;;;7.47;;
63975;SDS011;50167;47.958;21.780;2024-02-23T09:02:24;10.90;;;8.00;;
63975;SDS011;50167;47.958;21.780;2024-02-23T09:04:52;13.53;;;8.63;;
63975;SDS011;50167;47.958;21.780;2024-02-23T09:07:19;11.93;;;7.27;;
63975;SDS011;50167;47.958;21.780;2024-02-23T09:09:47;10.50;;;6.43;;
63975;SDS011;50167;47.958;21.780;2024-02-23T09:12:17;9.17;;;6.70;;
63975;SDS011;50167;47.958;21.780;2024-02-23T09:14:45;10.40;;;7.30;;
63975;SDS011;50167;47.958;21.780;2024-02-23T09:17:12;9.83;;;7.37;;
63975;SDS011;50167;47.958;21.780;2024-02-23T09:19:39;11.80;;;7.97;;
63975;SDS011;50167;47.958;21.780;2024-02-23T09:22:07;11.37;;;6.87;;
63975;SDS011;50167;47.958;21.780;2024-02-23T09:24:34;11.47;;;6.17;;
63975;SDS011;50167;47.958;21.780;2024-02-23T09:27:01;11.67;;;6.70;;
63975;SDS011;50167;47.958;21.780;2024-02-23T09:29:29;9.13;;;5.70;;
63975;SDS011;50167;47.958;21.780;2024-02-23T09:31:56;11.80;;;8.00;;
63975;SDS011;50167;47.958;21.780;2024-02-23T09:34:24;11.93;;;7.30;;
63975;SDS011;50167;47.958;21.780;2024-02-23T09:36:51;10.77;;;7.03;;
63975;SDS011;50167;47.958;21.780;2024-02-23T09:39:19;9.77;;;6.50;;
63975;SDS011;50167;47.958;21.780;2024-02-23T09:41:48;8.87;;;7.03;;
63975;SDS011;50167;47.958;21.780;2024-02-23T09:44:17;9.23;;;5.85;;
63975;SDS011;50167;47.958;21.780;2024-02-23T09:46:47;8.20;;;6.10;;
63975;SDS011;50167;47.958;21.780;2024-02-23T09:49:15;11.17;;;5.93;;
63975;SDS011;50167;47.958;21.780;2024-02-23T09:51:42;8.67;;;5.97;;
63975;SDS011;50167;47.958;21.780;2024-02-23T09:54:11;11.77;;;6.20;;
63975;SDS011;50167;47.958;21.780;2024-02-23T09:56:38;18.20;;;6.73;;
63975;SDS011;50167;47.958;21.780;2024-02-23T09:59:06;10.37;;;6.53;;
63975;SDS011;50167;47.958;21.780;2024-02-23T10:01:33;10.63;;;6.50;;
63975;SDS011;50167;47.958;21.780;2024-02-23T10:04:02;10.93;;;6.67;;
63975;SDS011;50167;47.958;21.780;2024-02-23T10:06:31;11.23;;;5.80;;
63975;SDS011;50167;47.958;21.780;2024-02-23T10:08:58;10.20;;;7.20;;
63975;SDS011;50167;47.958;21.780;2024-02-23T10:11:25;8.43;;;5.37;;
63975;SDS011;50167;47.958;21.780;2024-02-23T10:13:52;8.83;;;6.13;;
63975;SDS011;50167;47.958;21.780;2024-02-23T10:16:19;13.00;;;7.17;;
63975;SDS011;50167;47.958;21.780;2024-02-23T10:18:48;8.30;;;6.47;;
63975;SDS011;50167;47.958;21.780;2024-02-23T10:21:16;12.37;;;6.50;;
63975;SDS011;50167;47.958;21.780;2024-02-23T10:23:44;9.77;;;6.20;;
63975;SDS011;50167;47.958;21.780;2024-02-23T10:26:12;14.77;;;5.50;;
63975;SDS011;50167;47.958;21.780;2024-02-23T10:28:39;6.73;;;5.17;;
63975;SDS011;50167;47.958;21.780;2024-02-23T10:31:06;9.63;;;5.70;;
63975;SDS011;50167;47.958;21.780;2024-02-23T10:33:33;8.03;;;5.03;;
63975;SDS011;50167;47.958;21.780;2024-02-23T10:36:02;9.97;;;5.87;;
63975;SDS011;50167;47.958;21.780;2024-02-23T10:38:34;9.13;;;5.73;;
63975;SDS011;50167;47.958;21.780;2024-02-23T10:41:05;9.60;;;6.85;;
63975;SDS011;50167;47.958;21.780;2024-02-23T10:43:36;10.20;;;5.67;;
63975;SDS011;50167;47.958;21.780;2024-02-23T10:46:10;8.87;;;6.07;;
63975;SDS011;50167;47.958;21.780;2024-02-23T10:51:10;13.43;;;7.73;;
63975;SDS011;50167;47.958;21.780;2024-02-23T10:53:40;12.68;;;7.22;;
63975;SDS011;50167;47.958;21.780;2024-02-23T10:56:08;10.27;;;7.63;;
63975;SDS011;50167;47.958;21.780;2024-02-23T10:58:36;9.87;;;6.50;;
63975;SDS011;50167;47.958;21.780;2024-02-23T11:01:04;10.07;;;6.40;;
63975;SDS011;50167;47.958;21.780;2024-02-23T11:03:35;10.70;;;6.40;;
63975;SDS011;50167;47.958;21.780;2024-02-23T11:06:07;8.40;;;5.70;;
63975;SDS011;50167;47.958;21.780;2024-02-23T11:08:35;8.53;;;5.65;;
63975;SDS011;50167;47.958;21.780;2024-02-23T11:11:08;8.73;;;6.20;;
63975;SDS011;50167;47.958;21.780;2024-02-23T11:13:40;8.93;;;5.60;;
63975;SDS011;50167;47.958;21.780;2024-02-23T11:16:11;11.03;;;6.27;;
63975;SDS011;50167;47.958;21.780;2024-02-23T11:18:40;10.97;;;6.80;;
63975;SDS011;50167;47.958;21.780;2024-02-23T11:21:09;11.77;;;6.47;;
63975;SDS011;50167;47.958;21.780;2024-02-23T11:24:10;10.60;;;7.93;;
63975;SDS011;50167;47.958;21.780;2024-02-23T11:26:17;10.08;;;6.80;;
63975;SDS011;50167;47.958;21.780;2024-02-23T11:28:51;10.73;;;7.13;;
63975;SDS011;50167;47.958;21.780;2024-02-23T11:31:25;13.67;;;6.63;;
63975;SDS011;50167;47.958;21.780;2024-02-23T11:33:56;12.13;;;6.83;;
63975;SDS011;50167;47.958;21.780;2024-02-23T11:36:27;7.80;;;5.50;;
63975;SDS011;50167;47.958;21.780;2024-02-23T11:39:01;8.03;;;5.83;;
63975;SDS011;50167;47.958;21.780;2024-02-23T11:41:29;10.33;;;5.73;;
63975;SDS011;50167;47.958;21.780;2024-02-23T11:43:56;9.37;;;5.67;;
63975;SDS011;50167;47.958;21.780;2024-02-23T11:46:26;8.58;;;6.12;;
63975;SDS011;50167;47.958;21.780;2024-02-23T11:48:54;8.13;;;6.00;;
63975;SDS011;50167;47.958;21.780;2024-02-23T11:51:21;11.57;;;7.80;;
63975;SDS011;50167;47.958;21.780;2024-02-23T11:53:50;11.40;;;7.27;;
63975;SDS011;50167;47.958;21.780;2024-02-23T11:56:18;11.93;;;7.23;;
63975;SDS011;50167;47.958;21.780;2024-02-23T11:58:46;10.10;;;6.83;;
63975;SDS011;50167;47.958;21.780;2024-02-23T12:01:14;8.33;;;6.03;;
63975;SDS011;50167;47.958;21.780;2024-02-23T12:03:41;10.10;;;7.00;;
63975;SDS011;50167;47.958;21.780;2024-02-23T12:06:10;11.93;;;6.77;;
63975;SDS011;50167;47.958;21.780;2024-02-23T12:08:38;9.83;;;6.13;;
63975;SDS011;50167;47.958;21.780;2024-02-23T12:11:06;9.30;;;5.40;;
63975;SDS011;50167;47.958;21.780;2024-02-23T12:13:39;8.13;;;6.00;;
63975;SDS011;50167;47.958;21.780;2024-02-23T12:16:06;22.47;;;6.63;;
63975;SDS011;50167;47.958;21.780;2024-02-23T12:18:34;9.07;;;6.10;;
63975;SDS011;50167;47.958;21.780;2024-02-23T12:21:04;11.43;;;6.63;;
63975;SDS011;50167;47.958;21.780;2024-02-23T12:23:48;10.20;;;6.08;;
63975;SDS011;50167;47.958;21.780;2024-02-23T12:26:12;8.77;;;6.10;;
63975;SDS011;50167;47.958;21.780;2024-02-23T12:28:41;8.47;;;6.33;;
63975;SDS011;50167;47.958;21.780;2024-02-23T12:31:08;14.73;;;7.47;;
63975;SDS011;50167;47.958;21.780;2024-02-23T12:33:37;9.07;;;6.53;;
63975;SDS011;50167;47.958;21.780;2024-02-23T12:36:06;10.65;;;7.05;;
63975;SDS011;50167;47.958;21.780;2024-02-23T12:38:35;11.63;;;6.13;;
63975;SDS011;50167;47.958;21.780;2024-02-23T12:41:02;8.47;;;5.60;;
63975;SDS011;50167;47.958;21.780;2024-02-23T12:43:31;10.13;;;6.40;;
63975;SDS011;50167;47.958;21.780;2024-02-23T12:45:58;9.93;;;6.10;;
63975;SDS011;50167;47.958;21.780;2024-02-23T12:48:27;9.87;;;6.07;;
63975;SDS011;50167;47.958;21.780;2024-02-23T12:50:54;12.00;;;6.90;;
63975;SDS011;50167;47.958;21.780;2024-02-23T12:53:35;8.97;;;6.43;;
63975;SDS011;50167;47.958;21.780;2024-02-23T12:56:04;12.40;;;6.43;;
63975;SDS011;50167;47.958;21.780;2024-02-23T12:58:35;12.00;;;6.90;;
63975;SDS011;50167;47.958;21.780;2024-02-23T13:01:05;10.57;;;6.57;;
63975;SDS011;50167;47.958;21.780;2024-02-23T13:03:34;10.97;;;7.57;;
63975;SDS011;50167;47.958;21.780;2024-02-23T13:06:04;15.72;;;6.78;;
63975;SDS011;50167;47.958;21.780;2024-02-23T13:08:31;12.93;;;7.00;;
63975;SDS011;50167;47.958;21.780;2024-02-23T13:10:58;10.60;;;7.20;;
63975;SDS011;50167;47.958;21.780;2024-02-23T13:13:25;10.53;;;6.37;;
63975;SDS011;50167;47.958;21.780;2024-02-23T13:15:53;12.83;;;6.67;;
63975;SDS011;50167;47.958;21.780;2024-02-23T13:18:21;10.53;;;6.57;;
63975;SDS011;50167;47.958;21.780;2024-02-23T13:20:48;12.77;;;5.33;;
63975;SDS011;50167;47.958;21.780;2024-02-23T13:23:16;11.20;;;6.87;;
63975;SDS011;50167;47.958;21.780;2024-02-23T13:25:44;11.37;;;5.80;;
63975;SDS011;50167;47.958;21.780;2024-02-23T13:28:11;9.17;;;7.07;;
63975;SDS011;50167;47.958;21.780;2024-02-23T13:30:38;16.77;;;8.97;;
63975;SDS011;50167;47.958;21.780;2024-02-23T13:33:06;10.50;;;6.70;;
63975;SDS011;50167;47.958;21.780;2024-02-23T13:35:36;13.48;;;7.53;;
63975;SDS011;50167;47.958;21.780;2024-02-23T13:38:05;9.97;;;6.47;;
63975;SDS011;50167;47.958;21.780;2024-02-23T13:40:33;9.10;;;5.43;;
63975;SDS011;50167;47.958;21.780;2024-02-23T13:43:00;8.20;;;6.37;;
63975;SDS011;50167;47.958;21.780;2024-02-23T13:45:27;11.67;;;7.63;;
63975;SDS011;50167;47.958;21.780;2024-02-23T13:47:58;27.10;;;15.13;;
63975;SDS011;50167;47.958;21.780;2024-02-23T13:50:31;13.23;;;10.00;;
63975;SDS011;50167;47.958;21.780;2024-02-23T13:52:59;14.10;;;8.17;;
63975;SDS011;50167;47.958;21.780;2024-02-23T13:55:26;14.03;;;9.53;;
63975;SDS011;50167;47.958;21.780;2024-02-23T13:57:53;15.23;;;10.40;;
63975;SDS011;50167;47.958;21.780;2024-02-23T14:00:20;15.43;;;10.23;;
63975;SDS011;50167;47.958;21.780;2024-02-23T14:02:48;14.20;;;9.47;;
63975;SDS011;50167;47.958;21.780;2024-02-23T14:05:15;13.60;;;8.13;;
63975;SDS011;50167;47.958;21.780;2024-02-23T14:07:44;15.50;;;8.03;;
63975;SDS011;50167;47.958;21.780;2024-02-23T14:10:11;11.70;;;6.60;;
63975;SDS011;50167;47.958;21.780;2024-02-23T14:12:39;11.77;;;6.80;;
63975;SDS011;50167;47.958;21.780;2024-02-23T14:15:07;9.57;;;6.70;;
63975;SDS011;50167;47.958;21.780;2024-02-23T14:17:35;13.23;;;6.67;;
63975;SDS011;50167;47.958;21.780;2024-02-23T14:20:03;10.40;;;6.47;;
63975;SDS011;50167;47.958;21.780;2024-02-23T14:22:32;7.73;;;5.83;;
63975;SDS011;50167;47.958;21.780;2024-02-23T14:25:00;11.80;;;8.23;;
63975;SDS011;50167;47.958;21.780;2024-02-23T14:27:27;10.00;;;7.03;;
63975;SDS011;50167;47.958;21.780;2024-02-23T14:29:54;8.33;;;5.87;;
63975;SDS011;50167;47.958;21.780;2024-02-23T14:32:21;11.57;;;6.87;;